sensor_id;sensor_type;location;lat;lon;timestamp;pressure;altitude;pressure_sealevel;temperature
62611;BMP280;48683;48.084;17.272;2023-08-06T00:02:14;98988.97;;;18.12
62611;BMP280;48683;48.084;17.272;2023-08-06T00:04:39;99000.00;;;18.08
62611;BMP280;48683;48.084;17.272;2023-08-06T00:07:04;99009.47;;;18.13
62611;BMP280;48683;48.084;17.272;2023-08-06T00:09:30;99002.34;;;18.15
62611;BMP280;48683;48.084;17.272;2023-08-06T00:11:55;99007.97;;;18.12
62611;BMP280;48683;48.084;17.272;2023-08-06T00:14:20;98990.53;;;18.03
62611;BMP280;48683;48.084;17.272;2023-08-06T00:16:45;98992.69;;;18.14
62611;BMP280;48683;48.084;17.272;2023-08-06T00:19:10;98967.50;;;18.14
62611;BMP280;48683;48.084;17.272;2023-08-06T00:21:36;98944.56;;;18.00
62611;BMP280;48683;48.084;17.272;2023-08-06T00:24:01;98932.94;;;17.99
62611;BMP280;48683;48.084;17.272;2023-08-06T00:26:26;98930.03;;;17.88
62611;BMP280;48683;48.084;17.272;2023-08-06T00:28:51;98931.06;;;17.91
62611;BMP280;48683;48.084;17.272;2023-08-06T00:31:16;98923.44;;;17.80
62611;BMP280;48683;48.084;17.272;2023-08-06T00:33:42;98918.19;;;17.77
62611;BMP280;48683;48.084;17.272;2023-08-06T00:36:07;98910.59;;;17.66
62611;BMP280;48683;48.084;17.272;2023-08-06T00:38:32;98916.88;;;17.72
62611;BMP280;48683;48.084;17.272;2023-08-06T00:40:57;98924.78;;;17.61
62611;BMP280;48683;48.084;17.272;2023-08-06T00:43:22;98924.63;;;17.65
62611;BMP280;48683;48.084;17.272;2023-08-06T00:45:48;98918.44;;;17.64
62611;BMP280;48683;48.084;17.272;2023-08-06T00:48:13;98926.69;;;17.70
62611;BMP280;48683;48.084;17.272;2023-08-06T00:50:39;98941.03;;;17.70
62611;BMP280;48683;48.084;17.272;2023-08-06T00:53:04;98934.84;;;17.70
62611;BMP280;48683;48.084;17.272;2023-08-06T00:55:29;98934.66;;;17.73
62611;BMP280;48683;48.084;17.272;2023-08-06T00:57:55;98937.19;;;17.77
62611;BMP280;48683;48.084;17.272;2023-08-06T01:00:21;98945.13;;;17.66
62611;BMP280;48683;48.084;17.272;2023-08-06T01:02:48;98952.28;;;17.78
62611;BMP280;48683;48.084;17.272;2023-08-06T01:05:13;98944.59;;;17.76
62611;BMP280;48683;48.084;17.272;2023-08-06T01:12:34;98948.50;;;17.75
62611;BMP280;48683;48.084;17.272;2023-08-06T01:15:07;98946.09;;;17.77
62611;BMP280;48683;48.084;17.272;2023-08-06T01:17:35;98945.34;;;17.77
62611;BMP280;48683;48.084;17.272;2023-08-06T01:20:01;98942.44;;;17.80
62611;BMP280;48683;48.084;17.272;2023-08-06T01:22:26;98935.69;;;17.76
62611;BMP280;48683;48.084;17.272;2023-08-06T01:24:51;98932.75;;;17.65
62611;BMP280;48683;48.084;17.272;2023-08-06T01:27:25;98935.13;;;17.72
62611;BMP280;48683;48.084;17.272;2023-08-06T01:30:13;98929.31;;;17.55
62611;BMP280;48683;48.084;17.272;2023-08-06T01:32:37;98933.50;;;17.65
62611;BMP280;48683;48.084;17.272;2023-08-06T01:35:04;98927.50;;;17.61
62611;BMP280;48683;48.084;17.272;2023-08-06T01:37:29;98938.81;;;17.60
62611;BMP280;48683;48.084;17.272;2023-08-06T01:39:54;98928.66;;;17.69
62611;BMP280;48683;48.084;17.272;2023-08-06T01:42:20;98935.47;;;17.65
62611;BMP280;48683;48.084;17.272;2023-08-06T01:44:45;98937.44;;;17.64
62611;BMP280;48683;48.084;17.272;2023-08-06T01:47:10;98929.09;;;17.44
62611;BMP280;48683;48.084;17.272;2023-08-06T01:49:35;98932.94;;;17.52
62611;BMP280;48683;48.084;17.272;2023-08-06T01:52:01;98925.16;;;17.45
62611;BMP280;48683;48.084;17.272;2023-08-06T01:54:26;98919.28;;;17.46
62611;BMP280;48683;48.084;17.272;2023-08-06T01:56:52;98918.88;;;17.39
62611;BMP280;48683;48.084;17.272;2023-08-06T01:59:18;98908.66;;;17.34
62611;BMP280;48683;48.084;17.272;2023-08-06T02:01:43;98906.53;;;17.38
62611;BMP280;48683;48.084;17.272;2023-08-06T02:04:08;98908.94;;;17.36
62611;BMP280;48683;48.084;17.272;2023-08-06T02:06:33;98902.53;;;17.24
62611;BMP280;48683;48.084;17.272;2023-08-06T02:08:58;98892.56;;;17.30
62611;BMP280;48683;48.084;17.272;2023-08-06T02:11:24;98886.44;;;17.21
62611;BMP280;48683;48.084;17.272;2023-08-06T02:13:49;98890.81;;;17.18
62611;BMP280;48683;48.084;17.272;2023-08-06T02:16:14;98897.28;;;17.21
62611;BMP280;48683;48.084;17.272;2023-08-06T02:18:39;98885.84;;;17.17
62611;BMP280;48683;48.084;17.272;2023-08-06T02:21:04;98883.28;;;17.22
62611;BMP280;48683;48.084;17.272;2023-08-06T02:23:29;98882.75;;;17.33
62611;BMP280;48683;48.084;17.272;2023-08-06T02:25:59;98881.00;;;17.21
62611;BMP280;48683;48.084;17.272;2023-08-06T02:28:24;98881.00;;;17.21
62611;BMP280;48683;48.084;17.272;2023-08-06T02:30:50;98879.09;;;17.12
62611;BMP280;48683;48.084;17.272;2023-08-06T02:33:15;98882.13;;;17.14
62611;BMP280;48683;48.084;17.272;2023-08-06T02:35:40;98883.03;;;17.11
62611;BMP280;48683;48.084;17.272;2023-08-06T02:38:05;98883.31;;;17.13
62611;BMP280;48683;48.084;17.272;2023-08-06T02:40:31;98876.69;;;17.14
62611;BMP280;48683;48.084;17.272;2023-08-06T02:42:56;98882.06;;;17.23
62611;BMP280;48683;48.084;17.272;2023-08-06T02:45:21;98881.53;;;17.10
62611;BMP280;48683;48.084;17.272;2023-08-06T02:47:46;98885.84;;;17.17
62611;BMP280;48683;48.084;17.272;2023-08-06T02:50:11;98882.91;;;17.05
62611;BMP280;48683;48.084;17.272;2023-08-06T02:52:37;98883.03;;;17.11
62611;BMP280;48683;48.084;17.272;2023-08-06T02:55:03;98889.22;;;17.12
62611;BMP280;48683;48.084;17.272;2023-08-06T02:57:29;98886.03;;;17.13
62611;BMP280;48683;48.084;17.272;2023-08-06T02:59:54;98895.13;;;17.01
62611;BMP280;48683;48.084;17.272;2023-08-06T03:02:19;98883.28;;;16.89
62611;BMP280;48683;48.084;17.272;2023-08-06T03:04:44;98886.41;;;16.97
62611;BMP280;48683;48.084;17.272;2023-08-06T03:07:10;98877.41;;;16.91
62611;BMP280;48683;48.084;17.272;2023-08-06T03:09:35;98877.88;;;16.89
62611;BMP280;48683;48.084;17.272;2023-08-06T03:12:00;98877.44;;;16.82
62611;BMP280;48683;48.084;17.272;2023-08-06T03:14:25;98873.72;;;16.79
62611;BMP280;48683;48.084;17.272;2023-08-06T03:16:50;98871.94;;;16.67
62611;BMP280;48683;48.084;17.272;2023-08-06T03:19:16;98869.66;;;16.75
62611;BMP280;48683;48.084;17.272;2023-08-06T03:21:41;98858.41;;;16.67
62611;BMP280;48683;48.084;17.272;2023-08-06T03:24:06;98853.00;;;16.58
62611;BMP280;48683;48.084;17.272;2023-08-06T03:26:31;98860.53;;;16.63
62611;BMP280;48683;48.084;17.272;2023-08-06T03:28:57;98858.41;;;16.67
62611;BMP280;48683;48.084;17.272;2023-08-06T03:31:22;98851.47;;;16.66
62611;BMP280;48683;48.084;17.272;2023-08-06T03:33:47;98857.47;;;16.70
62611;BMP280;48683;48.084;17.272;2023-08-06T03:36:12;98863.41;;;16.59
62611;BMP280;48683;48.084;17.272;2023-08-06T03:38:37;98856.03;;;16.60
62611;BMP280;48683;48.084;17.272;2023-08-06T03:41:03;98853.91;;;16.64
62611;BMP280;48683;48.084;17.272;2023-08-06T03:43:28;98854.66;;;16.65
62611;BMP280;48683;48.084;17.272;2023-08-06T03:45:53;98848.31;;;16.68
62611;BMP280;48683;48.084;17.272;2023-08-06T03:48:18;98843.94;;;16.70
62611;BMP280;48683;48.084;17.272;2023-08-06T03:50:43;98837.94;;;16.66
62611;BMP280;48683;48.084;17.272;2023-08-06T03:53:09;98835.06;;;16.70
62611;BMP280;48683;48.084;17.272;2023-08-06T03:55:34;98835.56;;;16.59
62611;BMP280;48683;48.084;17.272;2023-08-06T03:57:59;98834.31;;;16.69
62611;BMP280;48683;48.084;17.272;2023-08-06T04:00:24;98840.22;;;16.58
62611;BMP280;48683;48.084;17.272;2023-08-06T04:02:49;98852.72;;;16.65
62611;BMP280;48683;48.084;17.272;2023-08-06T04:05:15;98844.06;;;16.76
62611;BMP280;48683;48.084;17.272;2023-08-06T04:07:40;98851.63;;;16.72
62611;BMP280;48683;48.084;17.272;2023-08-06T04:10:05;98845.31;;;16.66
62611;BMP280;48683;48.084;17.272;2023-08-06T04:12:31;98850.19;;;16.85
62611;BMP280;48683;48.084;17.272;2023-08-06T04:14:58;98851.59;;;16.81
62611;BMP280;48683;48.084;17.272;2023-08-06T04:17:23;98855.34;;;16.74
62611;BMP280;48683;48.084;17.272;2023-08-06T04:19:49;98844.81;;;16.76
62611;BMP280;48683;48.084;17.272;2023-08-06T04:22:15;98852.91;;;16.85
62611;BMP280;48683;48.084;17.272;2023-08-06T04:24:40;98851.63;;;16.72
62611;BMP280;48683;48.084;17.272;2023-08-06T04:27:06;98831.91;;;16.71
62611;BMP280;48683;48.084;17.272;2023-08-06T04:29:31;98849.69;;;16.63
62611;BMP280;48683;48.084;17.272;2023-08-06T04:31:56;98842.59;;;16.66
62611;BMP280;48683;48.084;17.272;2023-08-06T04:34:21;98850.78;;;16.56
62611;BMP280;48683;48.084;17.272;2023-08-06T04:36:46;98849.25;;;16.65
62611;BMP280;48683;48.084;17.272;2023-08-06T04:39:12;98836.16;;;16.54
62611;BMP280;48683;48.084;17.272;2023-08-06T04:41:37;98848.06;;;16.56
62611;BMP280;48683;48.084;17.272;2023-08-06T04:44:02;98838.59;;;16.43
62611;BMP280;48683;48.084;17.272;2023-08-06T04:46:28;98821.75;;;16.48
62611;BMP280;48683;48.084;17.272;2023-08-06T04:48:53;98838.56;;;16.52
62611;BMP280;48683;48.084;17.272;2023-08-06T04:51:19;98836.78;;;16.49
62611;BMP280;48683;48.084;17.272;2023-08-06T04:53:44;98853.19;;;16.45
62611;BMP280;48683;48.084;17.272;2023-08-06T04:56:09;98858.13;;;16.47
62611;BMP280;48683;48.084;17.272;2023-08-06T04:58:34;98857.28;;;16.41
62611;BMP280;48683;48.084;17.272;2023-08-06T05:00:59;98868.94;;;16.56
62611;BMP280;48683;48.084;17.272;2023-08-06T05:03:25;98879.47;;;16.54
62611;BMP280;48683;48.084;17.272;2023-08-06T05:05:50;98877.09;;;16.47
62611;BMP280;48683;48.084;17.272;2023-08-06T05:08:15;98875.72;;;16.51
62611;BMP280;48683;48.084;17.272;2023-08-06T05:10:42;98871.41;;;16.45
62611;BMP280;48683;48.084;17.272;2023-08-06T05:13:07;98879.78;;;16.56
62611;BMP280;48683;48.084;17.272;2023-08-06T05:15:32;98868.81;;;16.50
62611;BMP280;48683;48.084;17.272;2023-08-06T05:17:58;98871.69;;;16.47
62611;BMP280;48683;48.084;17.272;2023-08-06T05:20:23;98867.19;;;16.44
62611;BMP280;48683;48.084;17.272;2023-08-06T05:22:49;98859.66;;;16.48
62611;BMP280;48683;48.084;17.272;2023-08-06T05:25:14;98866.44;;;16.43
62611;BMP280;48683;48.084;17.272;2023-08-06T05:27:39;98852.59;;;16.41
62611;BMP280;48683;48.084;17.272;2023-08-06T05:30:05;98852.59;;;16.41
62611;BMP280;48683;48.084;17.272;2023-08-06T05:32:30;98852.28;;;16.39
62611;BMP280;48683;48.084;17.272;2023-08-06T05:34:55;98856.34;;;16.44
62611;BMP280;48683;48.084;17.272;2023-08-06T05:37:21;98849.47;;;16.34
62611;BMP280;48683;48.084;17.272;2023-08-06T05:39:46;98847.03;;;16.36
62611;BMP280;48683;48.084;17.272;2023-08-06T05:42:11;98853.22;;;16.36
62611;BMP280;48683;48.084;17.272;2023-08-06T05:44:36;98863.56;;;16.47
62611;BMP280;48683;48.084;17.272;2023-08-06T05:47:01;98868.38;;;16.43
62611;BMP280;48683;48.084;17.272;2023-08-06T05:49:27;98860.09;;;16.46
62611;BMP280;48683;48.084;17.272;2023-08-06T05:51:52;98865.50;;;16.55
62611;BMP280;48683;48.084;17.272;2023-08-06T05:54:18;98881.47;;;16.53
62611;BMP280;48683;48.084;17.272;2023-08-06T05:56:43;98877.97;;;16.62
62611;BMP280;48683;48.084;17.272;2023-08-06T05:59:08;98880.22;;;16.54
62611;BMP280;48683;48.084;17.272;2023-08-06T06:01:34;98887.00;;;16.68
62611;BMP280;48683;48.084;17.272;2023-08-06T06:03:59;98890.75;;;16.71
62611;BMP280;48683;48.084;17.272;2023-08-06T06:06:24;98876.91;;;16.69
62611;BMP280;48683;48.084;17.272;2023-08-06T06:08:49;98901.47;;;16.65
62611;BMP280;48683;48.084;17.272;2023-08-06T06:11:14;98886.69;;;16.66
62611;BMP280;48683;48.084;17.272;2023-08-06T06:13:40;98890.28;;;16.72
62611;BMP280;48683;48.084;17.272;2023-08-06T06:16:05;98883.66;;;16.73
62611;BMP280;48683;48.084;17.272;2023-08-06T06:18:30;98895.81;;;16.78
62611;BMP280;48683;48.084;17.272;2023-08-06T06:20:55;98882.91;;;16.73
62611;BMP280;48683;48.084;17.272;2023-08-06T06:23:21;98881.25;;;16.75
62611;BMP280;48683;48.084;17.272;2023-08-06T06:25:49;98873.28;;;16.72
62611;BMP280;48683;48.084;17.272;2023-08-06T06:28:16;98871.91;;;16.76
62611;BMP280;48683;48.084;17.272;2023-08-06T06:30:42;98864.06;;;16.78
62611;BMP280;48683;48.084;17.272;2023-08-06T06:33:07;98865.59;;;16.79
62611;BMP280;48683;48.084;17.272;2023-08-06T06:35:33;98860.50;;;16.72
62611;BMP280;48683;48.084;17.272;2023-08-06T06:37:59;98855.66;;;16.76
62611;BMP280;48683;48.084;17.272;2023-08-06T06:40:25;98858.97;;;16.80
62611;BMP280;48683;48.084;17.272;2023-08-06T06:42:50;98861.66;;;16.80
62611;BMP280;48683;48.084;17.272;2023-08-06T06:45:15;98867.09;;;16.80
62611;BMP280;48683;48.084;17.272;2023-08-06T06:47:40;98873.81;;;16.85
62611;BMP280;48683;48.084;17.272;2023-08-06T06:50:06;98875.03;;;16.84
62611;BMP280;48683;48.084;17.272;2023-08-06T06:52:31;98868.41;;;16.85
62611;BMP280;48683;48.084;17.272;2023-08-06T06:54:56;98861.19;;;16.82
62611;BMP280;48683;48.084;17.272;2023-08-06T06:57:21;98857.56;;;16.85
62611;BMP280;48683;48.084;17.272;2023-08-06T06:59:47;98844.00;;;16.85
62611;BMP280;48683;48.084;17.272;2023-08-06T07:02:12;98844.16;;;16.90
62611;BMP280;48683;48.084;17.272;2023-08-06T07:04:37;98855.75;;;16.91
62611;BMP280;48683;48.084;17.272;2023-08-06T07:07:02;98834.41;;;16.84
62611;BMP280;48683;48.084;17.272;2023-08-06T07:09:28;98849.28;;;16.88
62611;BMP280;48683;48.084;17.272;2023-08-06T07:11:53;98845.94;;;16.93
62611;BMP280;48683;48.084;17.272;2023-08-06T07:14:18;98841.25;;;16.94
62611;BMP280;48683;48.084;17.272;2023-08-06T07:16:43;98854.94;;;16.99
62611;BMP280;48683;48.084;17.272;2023-08-06T07:19:09;98839.44;;;17.00
62611;BMP280;48683;48.084;17.272;2023-08-06T07:21:34;98847.84;;;17.02
62611;BMP280;48683;48.084;17.272;2023-08-06T07:23:59;98825.25;;;17.05
62611;BMP280;48683;48.084;17.272;2023-08-06T07:26:25;98844.69;;;17.03
62611;BMP280;48683;48.084;17.272;2023-08-06T07:28:50;98850.28;;;17.00
62611;BMP280;48683;48.084;17.272;2023-08-06T07:31:15;98842.16;;;17.00
62611;BMP280;48683;48.084;17.272;2023-08-06T07:33:40;98852.81;;;17.03
62611;BMP280;48683;48.084;17.272;2023-08-06T07:36:12;98850.50;;;17.11
62611;BMP280;48683;48.084;17.272;2023-08-06T07:38:38;98861.97;;;17.06
62611;BMP280;48683;48.084;17.272;2023-08-06T07:41:03;98877.91;;;17.13
62611;BMP280;48683;48.084;17.272;2023-08-06T07:43:28;98875.19;;;17.13
62611;BMP280;48683;48.084;17.272;2023-08-06T07:45:53;98867.19;;;17.19
62611;BMP280;48683;48.084;17.272;2023-08-06T07:48:19;98873.81;;;17.18
62611;BMP280;48683;48.084;17.272;2023-08-06T07:50:44;98865.06;;;17.23
62611;BMP280;48683;48.084;17.272;2023-08-06T07:53:15;98866.25;;;17.22
62611;BMP280;48683;48.084;17.272;2023-08-06T07:55:40;98880.38;;;17.26
62611;BMP280;48683;48.084;17.272;2023-08-06T07:58:05;98867.50;;;17.35
62611;BMP280;48683;48.084;17.272;2023-08-06T08:00:30;98883.22;;;17.31
62611;BMP280;48683;48.084;17.272;2023-08-06T08:02:56;98847.97;;;17.31
62611;BMP280;48683;48.084;17.272;2023-08-06T08:05:21;98889.50;;;17.37
62611;BMP280;48683;48.084;17.272;2023-08-06T08:07:46;98887.06;;;17.39
62611;BMP280;48683;48.084;17.272;2023-08-06T08:10:11;98885.25;;;17.45
62611;BMP280;48683;48.084;17.272;2023-08-06T08:12:37;98885.69;;;17.44
62611;BMP280;48683;48.084;17.272;2023-08-06T08:15:02;98898.03;;;17.45
62611;BMP280;48683;48.084;17.272;2023-08-06T08:17:28;98884.72;;;17.56
62611;BMP280;48683;48.084;17.272;2023-08-06T08:19:53;98905.81;;;17.52
62611;BMP280;48683;48.084;17.272;2023-08-06T08:22:18;98902.19;;;17.55
62611;BMP280;48683;48.084;17.272;2023-08-06T08:24:44;98873.69;;;17.60
62611;BMP280;48683;48.084;17.272;2023-08-06T08:27:09;98891.50;;;17.51
62611;BMP280;48683;48.084;17.272;2023-08-06T08:29:34;98884.88;;;17.52
62611;BMP280;48683;48.084;17.272;2023-08-06T08:31:59;98894.03;;;17.55
62611;BMP280;48683;48.084;17.272;2023-08-06T08:34:24;98877.94;;;17.61
62611;BMP280;48683;48.084;17.272;2023-08-06T08:36:50;98895.41;;;17.60
62611;BMP280;48683;48.084;17.272;2023-08-06T08:39:15;98904.78;;;17.59
62611;BMP280;48683;48.084;17.272;2023-08-06T08:41:40;98904.28;;;17.60
62611;BMP280;48683;48.084;17.272;2023-08-06T08:44:07;98915.28;;;17.56
62611;BMP280;48683;48.084;17.272;2023-08-06T08:46:34;98921.78;;;17.59
62611;BMP280;48683;48.084;17.272;2023-08-06T08:49:00;98923.75;;;17.59
62611;BMP280;48683;48.084;17.272;2023-08-06T08:51:26;98924.88;;;17.67
62611;BMP280;48683;48.084;17.272;2023-08-06T08:53:52;98933.50;;;17.65
62611;BMP280;48683;48.084;17.272;2023-08-06T08:56:18;98924.22;;;17.57
62611;BMP280;48683;48.084;17.272;2023-08-06T08:58:44;98912.06;;;17.67
62611;BMP280;48683;48.084;17.272;2023-08-06T09:01:09;98925.38;;;17.65
62611;BMP280;48683;48.084;17.272;2023-08-06T09:03:35;98920.53;;;17.69
62611;BMP280;48683;48.084;17.272;2023-08-06T09:06:01;98933.16;;;17.72
62611;BMP280;48683;48.084;17.272;2023-08-06T09:08:27;98930.03;;;17.65
62611;BMP280;48683;48.084;17.272;2023-08-06T09:10:56;98927.53;;;17.76
62611;BMP280;48683;48.084;17.272;2023-08-06T09:13:22;98921.84;;;17.74
62611;BMP280;48683;48.084;17.272;2023-08-06T09:15:48;98933.59;;;17.71
62611;BMP280;48683;48.084;17.272;2023-08-06T09:18:15;98928.31;;;17.76
62611;BMP280;48683;48.084;17.272;2023-08-06T09:20:49;98937.09;;;17.86
62611;BMP280;48683;48.084;17.272;2023-08-06T09:23:15;98926.44;;;17.82
62611;BMP280;48683;48.084;17.272;2023-08-06T09:25:40;98919.22;;;17.79
62611;BMP280;48683;48.084;17.272;2023-08-06T09:28:08;98931.22;;;17.87
62611;BMP280;48683;48.084;17.272;2023-08-06T09:30:36;98930.03;;;17.88
62611;BMP280;48683;48.084;17.272;2023-08-06T09:33:02;98933.19;;;17.87
62611;BMP280;48683;48.084;17.272;2023-08-06T09:35:28;98919.75;;;17.92
62611;BMP280;48683;48.084;17.272;2023-08-06T09:37:53;98929.78;;;18.01
62611;BMP280;48683;48.084;17.272;2023-08-06T09:40:37;98920.50;;;17.93
62611;BMP280;48683;48.084;17.272;2023-08-06T09:43:02;98921.91;;;18.03
62611;BMP280;48683;48.084;17.272;2023-08-06T09:45:29;98920.13;;;18.00
62611;BMP280;48683;48.084;17.272;2023-08-06T09:47:55;98938.75;;;18.07
62611;BMP280;48683;48.084;17.272;2023-08-06T09:50:21;98920.50;;;18.08
62611;BMP280;48683;48.084;17.272;2023-08-06T09:52:46;98922.03;;;18.09
62611;BMP280;48683;48.084;17.272;2023-08-06T09:55:12;98925.66;;;18.06
62611;BMP280;48683;48.084;17.272;2023-08-06T09:57:38;98925.94;;;18.08
62611;BMP280;48683;48.084;17.272;2023-08-06T10:00:04;98926.03;;;18.13
62611;BMP280;48683;48.084;17.272;2023-08-06T10:02:30;98928.75;;;18.13
62611;BMP280;48683;48.084;17.272;2023-08-06T10:04:57;98931.00;;;18.15
62611;BMP280;48683;48.084;17.272;2023-08-06T10:07:22;98940.66;;;18.16
62611;BMP280;48683;48.084;17.272;2023-08-06T10:09:49;98942.25;;;18.22
62611;BMP280;48683;48.084;17.272;2023-08-06T10:12:14;98940.84;;;18.27
62611;BMP280;48683;48.084;17.272;2023-08-06T10:14:39;98947.69;;;18.22
62611;BMP280;48683;48.084;17.272;2023-08-06T10:17:06;98948.16;;;18.21
62611;BMP280;48683;48.084;17.272;2023-08-06T10:19:32;98945.25;;;18.24
62611;BMP280;48683;48.084;17.272;2023-08-06T10:27:23;98946.94;;;18.22
62611;BMP280;48683;48.084;17.272;2023-08-06T10:29:48;98943.06;;;18.14
62611;BMP280;48683;48.084;17.272;2023-08-06T10:32:15;98949.75;;;18.13
62611;BMP280;48683;48.084;17.272;2023-08-06T10:34:53;98970.31;;;18.05
62611;BMP280;48683;48.084;17.272;2023-08-06T10:37:19;98955.50;;;18.06
62611;BMP280;48683;48.084;17.272;2023-08-06T10:39:51;98958.22;;;18.06
62611;BMP280;48683;48.084;17.272;2023-08-06T10:42:27;98958.53;;;18.08
62611;BMP280;48683;48.084;17.272;2023-08-06T10:47:38;98972.09;;;18.08
62611;BMP280;48683;48.084;17.272;2023-08-06T10:50:04;98971.72;;;18.15
62611;BMP280;48683;48.084;17.272;2023-08-06T10:52:30;98980.75;;;18.21
62611;BMP280;48683;48.084;17.272;2023-08-06T10:54:56;98975.47;;;18.17
62611;BMP280;48683;48.084;17.272;2023-08-06T10:57:21;98982.31;;;18.13
62611;BMP280;48683;48.084;17.272;2023-08-06T10:59:46;98977.72;;;18.19
62611;BMP280;48683;48.084;17.272;2023-08-06T11:02:11;98991.31;;;18.19
62611;BMP280;48683;48.084;17.272;2023-08-06T11:04:37;98994.31;;;18.21
62611;BMP280;48683;48.084;17.272;2023-08-06T11:07:03;98991.69;;;18.26
62611;BMP280;48683;48.084;17.272;2023-08-06T11:09:28;98984.75;;;18.25
62611;BMP280;48683;48.084;17.272;2023-08-06T11:11:53;98998.00;;;18.32
62611;BMP280;48683;48.084;17.272;2023-08-06T11:14:18;98997.25;;;18.32
62611;BMP280;48683;48.084;17.272;2023-08-06T11:16:44;99006.81;;;18.42
62611;BMP280;48683;48.084;17.272;2023-08-06T11:19:09;99006.97;;;18.38
62611;BMP280;48683;48.084;17.272;2023-08-06T11:21:34;98993.59;;;18.35
62611;BMP280;48683;48.084;17.272;2023-08-06T11:24:00;98998.56;;;18.36
62611;BMP280;48683;48.084;17.272;2023-08-06T11:26:25;99018.25;;;18.46
62611;BMP280;48683;48.084;17.272;2023-08-06T11:28:52;99017.41;;;18.40
62611;BMP280;48683;48.084;17.272;2023-08-06T11:31:18;99008.09;;;18.32
62611;BMP280;48683;48.084;17.272;2023-08-06T11:33:43;99008.28;;;18.28
62611;BMP280;48683;48.084;17.272;2023-08-06T11:36:08;99021.50;;;18.35
62611;BMP280;48683;48.084;17.272;2023-08-06T11:38:34;99015.19;;;18.29
62611;BMP280;48683;48.084;17.272;2023-08-06T11:40:59;99024.47;;;18.23
62611;BMP280;48683;48.084;17.272;2023-08-06T11:43:24;99032.00;;;18.42
62611;BMP280;48683;48.084;17.272;2023-08-06T11:45:50;99018.56;;;18.24
62611;BMP280;48683;48.084;17.272;2023-08-06T11:48:19;99020.75;;;18.35
62611;BMP280;48683;48.084;17.272;2023-08-06T11:50:45;99023.06;;;18.27
62611;BMP280;48683;48.084;17.272;2023-08-06T11:53:12;99034.69;;;18.28
62611;BMP280;48683;48.084;17.272;2023-08-06T11:55:37;99022.66;;;18.43
62611;BMP280;48683;48.084;17.272;2023-08-06T11:58:03;99028.03;;;18.29
62611;BMP280;48683;48.084;17.272;2023-08-06T12:00:28;99040.03;;;18.37
62611;BMP280;48683;48.084;17.272;2023-08-06T12:02:54;99027.50;;;18.39
62611;BMP280;48683;48.084;17.272;2023-08-06T12:05:20;99033.88;;;18.36
62611;BMP280;48683;48.084;17.272;2023-08-06T12:07:47;99032.47;;;18.41
62611;BMP280;48683;48.084;17.272;2023-08-06T12:10:13;99037.81;;;18.50
62611;BMP280;48683;48.084;17.272;2023-08-06T12:12:38;99046.69;;;18.36
62611;BMP280;48683;48.084;17.272;2023-08-06T12:15:04;99042.97;;;18.48
62611;BMP280;48683;48.084;17.272;2023-08-06T12:17:31;99037.63;;;18.39
62611;BMP280;48683;48.084;17.272;2023-08-06T12:19:56;99036.41;;;18.40
62611;BMP280;48683;48.084;17.272;2023-08-06T12:22:21;99042.41;;;18.44
62611;BMP280;48683;48.084;17.272;2023-08-06T12:24:47;99043.31;;;18.41
62611;BMP280;48683;48.084;17.272;2023-08-06T12:27:12;99043.63;;;18.43
62611;BMP280;48683;48.084;17.272;2023-08-06T12:29:41;99051.97;;;18.39
62611;BMP280;48683;48.084;17.272;2023-08-06T12:32:07;99054.31;;;18.46
62611;BMP280;48683;48.084;17.272;2023-08-06T12:34:33;99062.53;;;18.37
62611;BMP280;48683;48.084;17.272;2023-08-06T12:36:58;99054.72;;;18.30
62611;BMP280;48683;48.084;17.272;2023-08-06T12:39:23;99065.91;;;18.32
62611;BMP280;48683;48.084;17.272;2023-08-06T12:41:48;99062.06;;;18.39
62611;BMP280;48683;48.084;17.272;2023-08-06T12:44:14;99057.56;;;18.36
62611;BMP280;48683;48.084;17.272;2023-08-06T12:46:39;99068.13;;;18.34
62611;BMP280;48683;48.084;17.272;2023-08-06T12:49:04;99071.16;;;18.36
62611;BMP280;48683;48.084;17.272;2023-08-06T12:51:30;99075.13;;;18.26
62611;BMP280;48683;48.084;17.272;2023-08-06T12:53:56;99081.94;;;18.21
62611;BMP280;48683;48.084;17.272;2023-08-06T12:56:21;99081.84;;;18.16
62611;BMP280;48683;48.084;17.272;2023-08-06T12:58:46;99088.59;;;18.20
62611;BMP280;48683;48.084;17.272;2023-08-06T13:01:11;99092.13;;;18.12
62611;BMP280;48683;48.084;17.272;2023-08-06T13:03:36;99092.31;;;18.08
62611;BMP280;48683;48.084;17.272;2023-08-06T13:06:01;99095.47;;;18.07
62611;BMP280;48683;48.084;17.272;2023-08-06T13:08:27;99098.94;;;18.07
62611;BMP280;48683;48.084;17.272;2023-08-06T13:10:52;99102.94;;;17.97
62611;BMP280;48683;48.084;17.272;2023-08-06T13:13:17;99100.03;;;18.00
62611;BMP280;48683;48.084;17.272;2023-08-06T13:15:42;99107.94;;;18.13
62611;BMP280;48683;48.084;17.272;2023-08-06T13:18:08;99105.53;;;18.15
62611;BMP280;48683;48.084;17.272;2023-08-06T13:20:33;99105.00;;;18.02
62611;BMP280;48683;48.084;17.272;2023-08-06T13:22:58;99115.56;;;18.00
62611;BMP280;48683;48.084;17.272;2023-08-06T13:25:23;99116.91;;;18.05
62611;BMP280;48683;48.084;17.272;2023-08-06T13:27:49;99117.53;;;17.99
62611;BMP280;48683;48.084;17.272;2023-08-06T13:30:15;99124.47;;;18.00
62611;BMP280;48683;48.084;17.272;2023-08-06T13:32:41;99122.63;;;18.07
62611;BMP280;48683;48.084;17.272;2023-08-06T13:35:06;99126.41;;;18.09
62611;BMP280;48683;48.084;17.272;2023-08-06T13:37:31;99135.00;;;18.08
62611;BMP280;48683;48.084;17.272;2023-08-06T13:39:57;99124.59;;;18.06
62611;BMP280;48683;48.084;17.272;2023-08-06T13:42:22;99132.44;;;18.04
62611;BMP280;48683;48.084;17.272;2023-08-06T13:44:47;99139.03;;;18.12
62611;BMP280;48683;48.084;17.272;2023-08-06T13:47:12;99137.09;;;18.13
62611;BMP280;48683;48.084;17.272;2023-08-06T13:49:37;99141.75;;;18.12
62611;BMP280;48683;48.084;17.272;2023-08-06T13:52:03;99142.97;;;18.11
62611;BMP280;48683;48.084;17.272;2023-08-06T13:54:28;99139.53;;;18.01
62611;BMP280;48683;48.084;17.272;2023-08-06T13:56:53;99142.22;;;18.11
62611;BMP280;48683;48.084;17.272;2023-08-06T13:59:18;99143.88;;;18.08
62611;BMP280;48683;48.084;17.272;2023-08-06T14:01:44;99141.00;;;18.12